createdAt,value
2019-01-25T00:00:01.916Z,95.93
2019-01-25T00:02:33.924Z,92.23
2019-01-25T00:05:05.739Z,97.63
2019-01-25T00:07:36.147Z,92.47
2019-01-25T00:10:07.641Z,86.70
2019-01-25T00:12:38.067Z,89.03
2019-01-25T00:15:09.051Z,83.70
2019-01-25T00:17:40.883Z,88.80
2019-01-25T00:20:11.536Z,88.67
2019-01-25T00:22:42.051Z,87.40
2019-01-25T00:25:12.660Z,85.93
2019-01-25T00:27:43.138Z,92.03
2019-01-25T00:30:15.598Z,94.40
2019-01-25T00:32:47.368Z,97.27
2019-01-25T00:35:18.914Z,96.97
2019-01-25T00:37:49.455Z,88.10
2019-01-25T00:40:20.353Z,88.07
2019-01-25T00:42:50.820Z,90.40
2019-01-25T00:45:21.350Z,90.63
2019-01-25T00:47:52.046Z,94.90
2019-01-25T00:50:22.768Z,93.40
2019-01-25T00:52:53.332Z,99.20
2019-01-25T00:55:23.825Z,92.87
2019-01-25T00:57:54.193Z,97.37
2019-01-25T01:00:26.037Z,84.17
2019-01-25T01:02:56.509Z,90.00
2019-01-25T01:05:27.131Z,90.97
2019-01-25T01:07:57.669Z,97.57
2019-01-25T01:10:28.169Z,89.30
2019-01-25T01:12:58.551Z,97.13
2019-01-25T01:15:29.135Z,92.37
2019-01-25T01:17:59.561Z,83.07
2019-01-25T01:20:30.023Z,80.57
2019-01-25T01:23:00.538Z,92.97
2019-01-25T01:25:30.972Z,90.17
2019-01-25T01:28:03.133Z,88.87
2019-01-25T01:30:33.678Z,84.63
2019-01-25T01:33:04.067Z,89.50
2019-01-25T01:35:34.544Z,90.67
2019-01-25T01:38:05.684Z,92.47
2019-01-25T01:40:37.240Z,89.03
2019-01-25T01:43:07.718Z,91.23
2019-01-25T01:45:38.222Z,88.87
2019-01-25T01:48:08.638Z,91.80
2019-01-25T01:50:39.180Z,87.73
2019-01-25T01:53:09.649Z,87.27
2019-01-25T01:55:40.292Z,89.47
2019-01-25T01:58:10.716Z,87.10
2019-01-25T02:00:41.140Z,79.73
2019-01-25T02:03:11.488Z,95.90
2019-01-25T02:05:41.913Z,84.73
2019-01-25T02:08:14.339Z,83.13
2019-01-25T02:10:44.466Z,90.23
2019-01-25T02:13:14.973Z,83.33
2019-01-25T02:15:46.087Z,91.47
2019-01-25T02:18:16.507Z,91.13
2019-01-25T02:20:47.013Z,96.00
2019-01-25T02:23:17.446Z,98.03
2019-01-25T02:25:47.869Z,91.43
2019-01-25T02:28:18.335Z,95.47
2019-01-25T02:30:48.753Z,87.97
2019-01-25T02:33:19.411Z,97.37
2019-01-25T02:35:49.873Z,92.23
2019-01-25T02:38:20.365Z,88.57
2019-01-25T02:40:50.890Z,88.93
2019-01-25T02:43:23.864Z,91.80
2019-01-25T02:45:56.258Z,97.23
2019-01-25T02:48:26.642Z,95.77
2019-01-25T02:50:57.300Z,97.97
2019-01-25T02:53:27.699Z,85.93
2019-01-25T02:55:58.194Z,92.80
2019-01-25T02:58:28.687Z,93.90
2019-01-25T03:00:59.132Z,92.77
2019-01-25T03:03:29.530Z,94.60
2019-01-25T03:05:59.861Z,92.63
2019-01-25T03:08:30.250Z,93.10
2019-01-25T03:11:00.672Z,98.50
2019-01-25T03:13:31.193Z,100.33
2019-01-25T03:16:01.652Z,103.43
2019-01-25T03:18:32.185Z,96.83
2019-01-25T03:21:02.611Z,103.87
2019-01-25T03:23:33.118Z,98.37
2019-01-25T03:26:03.459Z,102.77
2019-01-25T03:28:33.881Z,102.43
2019-01-25T03:31:04.466Z,102.97
2019-01-25T03:33:35.977Z,98.13
2019-01-25T03:36:06.367Z,100.73
2019-01-25T03:38:37.032Z,96.53
2019-01-25T03:41:08.413Z,101.90
2019-01-25T03:43:42.106Z,96.90
2019-01-25T03:46:12.571Z,106.53
2019-01-25T03:48:43.177Z,98.17
2019-01-25T03:51:13.529Z,105.60
2019-01-25T03:53:44.188Z,100.67
2019-01-25T03:56:14.560Z,106.87
2019-01-25T03:58:44.882Z,99.90
2019-01-25T04:01:15.322Z,101.27
2019-01-25T04:03:47.277Z,102.20
2019-01-25T04:06:17.652Z,103.53
2019-01-25T04:08:48.078Z,105.43
2019-01-25T04:11:18.533Z,104.87
2019-01-25T04:13:48.963Z,105.97
2019-01-25T04:16:19.516Z,103.27
2019-01-25T04:18:49.847Z,106.00
2019-01-25T04:21:20.317Z,106.03
2019-01-25T04:23:50.796Z,108.23
2019-01-25T04:26:21.186Z,113.20
2019-01-25T04:28:51.658Z,111.93
2019-01-25T04:31:22.105Z,111.27
2019-01-25T04:33:52.982Z,108.90
2019-01-25T04:36:23.414Z,117.23
2019-01-25T04:38:57.381Z,114.00
2019-01-25T04:41:27.785Z,108.10
2019-01-25T04:43:58.204Z,105.83
2019-01-25T04:46:28.577Z,117.80
2019-01-25T04:48:58.938Z,102.90
2019-01-25T04:51:29.353Z,102.83
2019-01-25T04:53:59.888Z,107.07
2019-01-25T04:56:37.629Z,109.10
2019-01-25T04:59:08.018Z,103.27
2019-01-25T05:01:40.433Z,103.30
2019-01-25T05:04:10.881Z,108.13
2019-01-25T05:06:41.252Z,122.50
2019-01-25T05:09:11.636Z,106.27
2019-01-25T05:11:44.805Z,110.67
2019-01-25T05:14:15.349Z,110.13
2019-01-25T05:16:45.729Z,106.40
2019-01-25T05:19:16.300Z,113.47
2019-01-25T05:21:46.640Z,105.83
2019-01-25T05:24:17.060Z,107.87
2019-01-25T05:26:47.842Z,120.97
2019-01-25T05:29:22.637Z,114.50
2019-01-25T05:31:53.110Z,123.80
2019-01-25T05:34:23.640Z,115.10
2019-01-25T05:36:54.053Z,113.33
2019-01-25T05:39:26.115Z,110.20
2019-01-25T05:41:56.582Z,101.40
2019-01-25T05:44:27.038Z,103.77
2019-01-25T05:46:57.457Z,114.43
2019-01-25T05:49:27.980Z,102.57
2019-01-25T05:51:58.362Z,109.37
2019-01-25T05:54:28.914Z,109.67
2019-01-25T05:56:59.584Z,114.23
2019-01-25T05:59:30.091Z,117.60
2019-01-25T06:02:03.383Z,112.37
2019-01-25T06:04:35.500Z,104.03
2019-01-25T06:07:06.357Z,100.50
2019-01-25T06:09:38.091Z,98.03
2019-01-25T06:12:10.155Z,104.17
2019-01-25T06:14:40.668Z,95.87
2019-01-25T06:17:11.073Z,99.30
2019-01-25T06:19:41.540Z,104.50
2019-01-25T06:22:11.995Z,105.00
2019-01-25T06:24:47.528Z,102.17
2019-01-25T06:27:18.062Z,95.77
2019-01-25T06:29:48.898Z,91.17
2019-01-25T06:32:19.272Z,97.23
2019-01-25T06:34:49.696Z,103.10
2019-01-25T06:37:20.136Z,104.50
2019-01-25T06:39:51.184Z,98.17
2019-01-25T06:42:21.729Z,104.77
2019-01-25T06:44:52.298Z,107.37
2019-01-25T06:47:22.661Z,110.33
2019-01-25T06:49:54.585Z,109.87
2019-01-25T06:52:24.997Z,101.53
2019-01-25T06:54:55.401Z,106.07
2019-01-25T06:57:35.713Z,110.43
2019-01-25T07:00:08.883Z,108.60
2019-01-25T07:02:41.167Z,116.43
2019-01-25T07:05:11.528Z,105.87
2019-01-25T07:07:43.561Z,113.33
2019-01-25T07:10:17.138Z,120.43
2019-01-25T07:12:47.440Z,123.80
2019-01-25T07:15:21.754Z,122.03
2019-01-25T07:17:52.255Z,124.00
2019-01-25T07:20:22.635Z,125.53
2019-01-25T07:22:53.044Z,129.07
2019-01-25T07:25:23.615Z,132.30
2019-01-25T07:27:54.032Z,131.03
2019-01-25T07:30:24.760Z,144.27
2019-01-25T07:32:55.218Z,129.93
2019-01-25T07:35:25.687Z,130.13
2019-01-25T07:37:56.082Z,121.53
2019-01-25T07:40:26.864Z,122.73
2019-01-25T07:42:57.320Z,144.57
2019-01-25T07:45:27.913Z,135.37
2019-01-25T07:47:58.774Z,148.30
2019-01-25T07:50:29.264Z,143.57
2019-01-25T07:52:59.713Z,149.70
2019-01-25T07:55:30.281Z,138.07
2019-01-25T07:58:00.970Z,137.23
2019-01-25T08:00:31.394Z,139.50
2019-01-25T08:03:02.006Z,132.67
2019-01-25T08:05:32.502Z,133.27
2019-01-25T08:08:02.938Z,149.17
2019-01-25T08:10:33.822Z,151.07
2019-01-25T08:13:04.421Z,138.53
2019-01-25T08:15:34.932Z,145.50
2019-01-25T08:18:05.483Z,140.50
2019-01-25T08:20:35.849Z,136.30
2019-01-25T08:23:06.323Z,143.07
2019-01-25T08:25:36.777Z,156.20
2019-01-25T08:28:07.157Z,152.80
2019-01-25T08:30:37.617Z,151.93
2019-01-25T08:33:09.126Z,159.30
2019-01-25T08:35:39.617Z,151.80
2019-01-25T08:38:10.005Z,155.87
2019-01-25T08:40:43.121Z,163.37
2019-01-25T08:43:16.240Z,184.47
2019-01-25T08:45:46.820Z,179.60
2019-01-25T08:48:17.517Z,197.10
2019-01-25T08:50:47.892Z,207.77
2019-01-25T08:53:18.381Z,207.37
2019-01-25T08:55:49.166Z,235.80
2019-01-25T08:58:19.620Z,198.20
2019-01-25T09:00:51.935Z,260.73
2019-01-25T09:03:22.549Z,241.30
2019-01-25T09:05:53.109Z,205.63
2019-01-25T09:08:23.669Z,255.10
2019-01-25T09:10:54.065Z,246.07
2019-01-25T09:13:25.664Z,264.30
2019-01-25T09:15:56.178Z,256.50
2019-01-25T09:18:26.914Z,299.47
2019-01-25T09:20:57.910Z,262.47
2019-01-25T09:23:28.329Z,279.77
2019-01-25T09:26:01.072Z,317.90
2019-01-25T09:28:30.888Z,293.57
2019-01-25T09:31:03.007Z,324.07
2019-01-25T09:33:33.631Z,296.70
2019-01-25T09:36:04.181Z,289.83
2019-01-25T09:38:34.741Z,280.63
2019-01-25T09:41:05.285Z,321.13
2019-01-25T09:43:36.898Z,279.90
2019-01-25T09:46:07.354Z,323.93
2019-01-25T09:48:37.984Z,340.30
2019-01-25T09:51:08.666Z,296.70
2019-01-25T09:53:39.219Z,305.03
2019-01-25T09:56:11.077Z,314.80
2019-01-25T09:58:44.937Z,311.20
2019-01-25T10:01:19.077Z,341.20
2019-01-25T10:03:56.902Z,313.47
2019-01-25T10:06:27.584Z,331.67
2019-01-25T10:08:58.318Z,344.87
2019-01-25T10:11:28.890Z,326.03
2019-01-25T10:13:59.334Z,362.00
2019-01-25T10:16:29.845Z,338.60
2019-01-25T10:19:00.246Z,330.70
2019-01-25T10:21:30.767Z,314.53
2019-01-25T10:24:01.137Z,330.97
2019-01-25T10:26:31.859Z,344.70
2019-01-25T10:29:02.245Z,317.33
2019-01-25T10:31:32.805Z,322.70
2019-01-25T10:34:03.165Z,327.77
2019-01-25T10:36:33.645Z,278.00
2019-01-25T10:39:05.185Z,303.37
2019-01-25T10:41:35.550Z,302.57
2019-01-25T10:44:07.982Z,281.40
2019-01-25T10:46:38.348Z,263.30
2019-01-25T10:49:09.970Z,276.10
2019-01-25T10:51:40.660Z,258.17
2019-01-25T10:54:11.072Z,277.10
2019-01-25T10:56:41.980Z,258.83
2019-01-25T10:59:12.580Z,254.93
2019-01-25T11:01:44.287Z,255.33
2019-01-25T11:04:14.952Z,247.57
2019-01-25T11:06:45.461Z,250.83
2019-01-25T11:09:15.944Z,233.93
2019-01-25T11:11:47.560Z,233.20
2019-01-25T11:14:20.884Z,217.70
2019-01-25T11:16:51.225Z,237.83
2019-01-25T11:19:21.599Z,220.57
2019-01-25T11:21:51.995Z,228.67
2019-01-25T11:24:22.408Z,227.17
2019-01-25T11:26:52.771Z,207.63
2019-01-25T11:29:23.439Z,207.83
2019-01-25T11:31:53.878Z,208.97
2019-01-25T11:34:24.240Z,184.70
2019-01-25T11:36:54.679Z,187.67
2019-01-25T11:39:26.600Z,186.23
2019-01-25T11:41:57.044Z,193.30
2019-01-25T11:44:27.412Z,189.63
2019-01-25T11:46:57.763Z,190.83
2019-01-25T11:49:30.883Z,186.43
2019-01-25T11:52:01.422Z,178.57
2019-01-25T11:54:33.042Z,188.83
2019-01-25T11:57:03.595Z,190.77
2019-01-25T11:59:35.779Z,180.47
2019-01-25T12:02:06.825Z,167.47
2019-01-25T12:04:38.019Z,170.00
2019-01-25T12:07:08.594Z,178.77
2019-01-25T12:09:39.149Z,159.37
2019-01-25T12:12:09.590Z,156.27
2019-01-25T12:14:40.005Z,141.67
2019-01-25T12:17:10.546Z,130.77
2019-01-25T12:19:41.154Z,126.67
2019-01-25T12:22:11.769Z,121.67
2019-01-25T12:24:42.416Z,123.33
2019-01-25T12:27:13.014Z,121.17
2019-01-25T12:29:45.934Z,114.90
2019-01-25T12:32:16.487Z,108.77
2019-01-25T12:34:47.176Z,148.22
2019-01-25T12:37:20.300Z,127.47
2019-01-25T12:39:52.389Z,127.93
2019-01-25T12:42:25.741Z,110.10
2019-01-25T12:44:58.199Z,125.60
2019-01-25T12:47:28.629Z,120.23
2019-01-25T12:50:00.340Z,120.53
2019-01-25T12:52:31.080Z,135.30
2019-01-25T12:55:01.513Z,124.07
2019-01-25T12:57:34.588Z,120.40
2019-01-25T13:00:08.999Z,129.80
2019-01-25T13:02:40.569Z,138.73
2019-01-25T13:05:13.171Z,138.20
2019-01-25T13:07:43.566Z,125.70
2019-01-25T13:10:16.386Z,122.07
2019-01-25T13:12:46.874Z,126.27
2019-01-25T13:15:17.476Z,127.23
2019-01-25T13:17:49.584Z,128.93
2019-01-25T13:20:22.008Z,133.63
2019-01-25T13:22:52.544Z,142.27
2019-01-25T13:25:23.180Z,127.17
2019-01-25T13:27:53.675Z,127.53
2019-01-25T13:30:26.945Z,129.10
2019-01-25T13:32:58.013Z,127.87
2019-01-25T13:35:28.447Z,131.43
2019-01-25T13:37:59.033Z,138.73
2019-01-25T13:40:29.559Z,128.97
2019-01-25T13:43:00.007Z,121.33
2019-01-25T13:45:30.488Z,136.70
2019-01-25T13:48:01.090Z,146.00
2019-01-25T13:50:34.920Z,129.07
2019-01-25T13:53:05.482Z,125.33
2019-01-25T13:55:36.017Z,131.63
2019-01-25T13:58:06.532Z,136.40
2019-01-25T14:00:37.036Z,132.50
2019-01-25T14:03:07.738Z,136.60
2019-01-25T14:05:38.092Z,124.60
2019-01-25T14:08:08.836Z,130.37
2019-01-25T14:10:39.936Z,137.13
2019-01-25T14:13:11.493Z,150.83
2019-01-25T14:15:42.487Z,127.27
2019-01-25T14:18:12.941Z,143.60
2019-01-25T14:20:45.083Z,149.50
2019-01-25T14:23:15.776Z,144.63
2019-01-25T14:25:46.395Z,144.40
2019-01-25T14:28:16.986Z,158.03
2019-01-25T14:30:49.599Z,146.37
2019-01-25T14:33:21.363Z,149.90
2019-01-25T14:35:56.346Z,149.57
2019-01-25T14:38:29.417Z,164.93
2019-01-25T14:41:02.836Z,154.50
2019-01-25T14:43:34.015Z,170.03
2019-01-25T14:46:04.948Z,170.10
2019-01-25T14:48:38.184Z,158.00
2019-01-25T14:51:13.446Z,157.33
2019-01-25T14:53:42.823Z,167.10
2019-01-25T14:56:13.524Z,164.20
2019-01-25T14:58:45.873Z,147.40
2019-01-25T15:01:17.698Z,156.27
2019-01-25T15:03:49.478Z,163.30
2019-01-25T15:06:22.776Z,145.27
2019-01-25T15:08:53.336Z,148.87
2019-01-25T15:11:26.710Z,163.30
2019-01-25T15:14:02.263Z,158.90
2019-01-25T15:16:29.509Z,154.43
2019-01-25T15:19:52.595Z,153.50
2019-01-25T15:22:24.814Z,136.17
2019-01-25T15:25:09.413Z,137.57
2019-01-25T15:28:38.220Z,129.37
2019-01-25T15:31:14.905Z,148.97
2019-01-25T15:33:48.239Z,128.30
2019-01-25T15:36:25.111Z,142.33
2019-01-25T15:38:55.735Z,130.70
2019-01-25T15:41:26.382Z,119.23
2019-01-25T15:43:56.824Z,119.63
2019-01-25T15:46:29.004Z,114.77
2019-01-25T15:48:59.552Z,114.73
2019-01-25T15:51:32.481Z,101.20
2019-01-25T15:54:03.041Z,102.87
2019-01-25T15:56:34.746Z,100.60
2019-01-25T15:59:05.371Z,100.37
2019-01-25T16:01:35.897Z,99.53
2019-01-25T16:04:23.614Z,95.90
2019-01-25T16:06:54.160Z,100.00
2019-01-25T16:09:24.572Z,105.90
2019-01-25T16:11:56.836Z,99.73
2019-01-25T16:14:27.224Z,107.23
2019-01-25T16:16:59.900Z,108.40
2019-01-25T16:19:30.510Z,99.10
2019-01-25T16:22:01.089Z,93.90
2019-01-25T16:24:32.845Z,106.03
2019-01-25T16:27:06.258Z,84.90
2019-01-25T16:29:36.794Z,95.80
2019-01-25T16:32:07.267Z,101.00
2019-01-25T16:34:37.679Z,77.40
2019-01-25T16:37:08.178Z,87.97
2019-01-25T16:39:38.908Z,85.13
2019-01-25T16:42:09.376Z,82.07
2019-01-25T16:44:40.955Z,90.07
2019-01-25T16:47:11.506Z,72.83
2019-01-25T16:49:42.046Z,91.50
2019-01-25T16:52:15.701Z,79.90
2019-01-25T16:54:46.176Z,89.57
2019-01-25T16:57:16.640Z,73.83
2019-01-25T16:59:47.175Z,73.63
2019-01-25T17:02:17.704Z,76.30
2019-01-25T17:04:49.025Z,83.67
2019-01-25T17:07:19.411Z,67.23
2019-01-25T17:09:49.889Z,81.40
2019-01-25T17:12:20.222Z,81.30
2019-01-25T17:14:52.729Z,70.40
2019-01-25T17:17:22.857Z,72.70
2019-01-25T17:19:53.247Z,68.33
2019-01-25T17:22:23.612Z,60.37
2019-01-25T17:24:54.019Z,73.20
2019-01-25T17:27:24.509Z,70.67
2019-01-25T17:30:01.416Z,75.10
2019-01-25T17:32:42.827Z,78.23
2019-01-25T17:35:06.931Z,88.97
2019-01-25T17:37:37.675Z,82.37
2019-01-25T17:40:11.361Z,84.63
2019-01-25T17:42:44.504Z,106.53
2019-01-25T17:45:15.624Z,117.53
2019-01-25T17:47:46.172Z,139.63
2019-01-25T17:50:16.746Z,139.27
2019-01-25T17:52:57.869Z,141.27
2019-01-25T17:55:39.486Z,168.37
2019-01-25T17:58:11.358Z,177.73
2019-01-25T18:00:55.911Z,183.17
2019-01-25T18:03:29.608Z,168.27
2019-01-25T18:06:00.357Z,179.00
2019-01-25T18:08:33.044Z,160.17
2019-01-25T18:11:08.427Z,178.03
2019-01-25T18:13:48.935Z,128.60
2019-01-25T18:16:22.240Z,153.57
2019-01-25T18:18:52.809Z,172.93
2019-01-25T18:21:25.514Z,136.87
2019-01-25T18:23:58.748Z,126.83
2019-01-25T18:26:31.187Z,96.47
2019-01-25T18:29:22.720Z,118.20
2019-01-25T18:31:59.446Z,109.70
2019-01-25T18:34:29.997Z,129.33
2019-01-25T18:37:03.617Z,101.37
2019-01-25T18:39:40.138Z,99.87
2019-01-25T18:42:10.812Z,80.77
2019-01-25T18:44:41.394Z,76.17
2019-01-25T18:47:14.909Z,86.53
2019-01-25T18:49:45.237Z,63.23
2019-01-25T18:52:15.732Z,72.97
2019-01-25T18:54:46.315Z,82.53
2019-01-25T18:57:27.833Z,73.40
2019-01-25T18:59:58.491Z,74.27
2019-01-25T19:02:29.697Z,64.17
2019-01-25T19:05:00.658Z,63.07
2019-01-25T19:07:32.556Z,62.63
2019-01-25T19:10:03.101Z,51.03
2019-01-25T19:12:34.883Z,66.47
2019-01-25T19:15:07.342Z,67.50
2019-01-25T19:17:40.200Z,61.10
2019-01-25T19:20:12.316Z,57.77
2019-01-25T19:22:42.959Z,50.53
2019-01-25T19:25:13.505Z,58.63
2019-01-25T19:27:43.986Z,63.63
2019-01-25T19:30:23.363Z,45.77
2019-01-25T19:32:53.953Z,47.03
2019-01-25T19:35:24.618Z,53.77
2019-01-25T19:37:55.164Z,58.77
2019-01-25T19:40:29.951Z,49.87
2019-01-25T19:43:00.527Z,62.07
2019-01-25T19:45:31.015Z,48.43
2019-01-25T19:48:03.123Z,45.07
2019-01-25T19:50:33.853Z,43.47
2019-01-25T19:53:05.317Z,51.60
2019-01-25T19:55:35.923Z,58.10
2019-01-25T19:58:08.230Z,52.37
2019-01-25T20:00:41.163Z,58.87
2019-01-25T20:03:14.877Z,59.90
2019-01-25T20:05:46.889Z,50.80
2019-01-25T20:08:17.523Z,56.97
2019-01-25T20:10:48.195Z,49.50
2019-01-25T20:13:19.215Z,52.30
2019-01-25T20:15:49.781Z,62.77
2019-01-25T20:18:20.294Z,49.63
2019-01-25T20:20:50.705Z,46.53
2019-01-25T20:23:21.274Z,58.53
2019-01-25T20:25:51.846Z,48.90
2019-01-25T20:28:22.471Z,46.07
2019-01-25T20:30:52.889Z,46.20
2019-01-25T20:33:23.516Z,53.27
2019-01-25T20:35:53.963Z,51.50
2019-01-25T20:38:25.078Z,47.67
2019-01-25T20:40:55.588Z,63.63
2019-01-25T20:43:26.114Z,49.27
2019-01-25T20:45:56.606Z,47.77
2019-01-25T20:48:27.088Z,47.40
2019-01-25T20:51:02.495Z,53.73
2019-01-25T20:53:33.006Z,55.00
2019-01-25T20:56:05.059Z,49.90
2019-01-25T20:58:35.528Z,57.63
2019-01-25T21:01:06.111Z,55.90
2019-01-25T21:03:36.512Z,59.33
2019-01-25T21:06:07.071Z,56.17
2019-01-25T21:08:37.915Z,52.30
2019-01-25T21:11:08.421Z,51.60
2019-01-25T21:13:38.884Z,48.90
2019-01-25T21:16:19.170Z,48.60
2019-01-25T21:18:50.845Z,44.13
2019-01-25T21:21:21.367Z,44.40
2019-01-25T21:23:51.919Z,51.23
2019-01-25T21:26:22.475Z,39.00
2019-01-25T21:28:54.211Z,50.43
2019-01-25T21:31:24.892Z,39.93
2019-01-25T21:33:55.342Z,45.90
2019-01-25T21:36:25.775Z,60.37
2019-01-25T21:38:57.818Z,46.97
2019-01-25T21:41:28.435Z,49.03
2019-01-25T21:43:59.309Z,41.53
2019-01-25T21:46:39.803Z,36.47
2019-01-25T21:49:04.520Z,43.27
2019-01-25T21:51:35.129Z,41.27
2019-01-25T21:54:05.981Z,44.93
2019-01-25T21:56:38.062Z,28.57
2019-01-25T21:59:08.680Z,46.47
2019-01-25T22:01:39.159Z,39.87
2019-01-25T22:04:09.733Z,39.10
2019-01-25T22:06:40.167Z,40.97
2019-01-25T22:09:13.442Z,38.67
2019-01-25T22:11:44.026Z,37.20
2019-01-25T22:14:14.470Z,36.77
2019-01-25T22:16:44.903Z,43.53
2019-01-25T22:19:15.498Z,39.67
2019-01-25T22:21:46.681Z,38.67
2019-01-25T22:24:17.077Z,37.07
2019-01-25T22:26:47.428Z,39.00
2019-01-25T22:29:17.789Z,39.00
2019-01-25T22:31:48.261Z,41.50
2019-01-25T22:34:19.898Z,39.80
2019-01-25T22:36:50.337Z,36.00
2019-01-25T22:39:20.823Z,38.83
2019-01-25T22:41:51.575Z,46.27
2019-01-25T22:44:21.991Z,46.67
2019-01-25T22:46:52.481Z,45.33
2019-01-25T22:49:23.975Z,44.53
2019-01-25T22:51:57.089Z,47.87
2019-01-25T22:54:27.629Z,44.27
2019-01-25T22:56:57.947Z,58.70
2019-01-25T22:59:28.477Z,47.50
2019-01-25T23:01:58.878Z,45.97
2019-01-25T23:04:40.640Z,41.93
2019-01-25T23:07:19.645Z,45.70
2019-01-25T23:10:13.291Z,43.03
2019-01-25T23:12:44.115Z,29.20
2019-01-25T23:15:16.908Z,37.43
2019-01-25T23:17:47.277Z,45.10
2019-01-25T23:20:17.956Z,56.37
2019-01-25T23:22:48.469Z,36.83
2019-01-25T23:25:18.890Z,48.73
2019-01-25T23:27:49.333Z,52.97
2019-01-25T23:30:19.745Z,47.00
2019-01-25T23:32:50.153Z,51.43
2019-01-25T23:35:22.876Z,45.13
2019-01-25T23:37:54.895Z,36.63
2019-01-25T23:40:25.207Z,44.27
2019-01-25T23:42:55.680Z,39.37
2019-01-25T23:45:26.121Z,42.60
2019-01-25T23:47:56.486Z,49.10
2019-01-25T23:50:28.985Z,46.50
2019-01-25T23:53:00.426Z,57.40
2019-01-25T23:55:33.830Z,49.80
2019-01-25T23:58:04.250Z,41.93
